sensor_id;sensor_type;location;lat;lon;timestamp;temperature;humidity
1329;DHT22;658;48.820;9.354;2022-11-20T00:01:51;21.70;50.40
1329;DHT22;658;48.820;9.354;2022-11-20T00:05:52;21.70;50.40
1329;DHT22;658;48.820;9.354;2022-11-20T00:09:52;21.70;50.30
1329;DHT22;658;48.820;9.354;2022-11-20T00:13:56;21.70;50.40
1329;DHT22;658;48.820;9.354;2022-11-20T00:17:57;21.70;50.40
1329;DHT22;658;48.820;9.354;2022-11-20T00:21:58;21.70;50.30
1329;DHT22;658;48.820;9.354;2022-11-20T00:26:03;21.70;50.30
1329;DHT22;658;48.820;9.354;2022-11-20T00:30:05;21.70;50.30
1329;DHT22;658;48.820;9.354;2022-11-20T00:34:06;21.60;50.20
1329;DHT22;658;48.820;9.354;2022-11-20T00:38:06;21.60;50.20
1329;DHT22;658;48.820;9.354;2022-11-20T00:42:07;21.60;50.20
1329;DHT22;658;48.820;9.354;2022-11-20T00:46:13;21.60;50.30
1329;DHT22;658;48.820;9.354;2022-11-20T00:50:13;21.60;50.30
1329;DHT22;658;48.820;9.354;2022-11-20T00:54:14;21.60;50.20
1329;DHT22;658;48.820;9.354;2022-11-20T00:58:15;21.60;50.20
1329;DHT22;658;48.820;9.354;2022-11-20T01:02:15;21.60;50.20
1329;DHT22;658;48.820;9.354;2022-11-20T01:06:20;21.60;50.30
1329;DHT22;658;48.820;9.354;2022-11-20T01:10:21;21.60;50.20
1329;DHT22;658;48.820;9.354;2022-11-20T01:14:21;21.60;50.20
1329;DHT22;658;48.820;9.354;2022-11-20T01:18:22;21.60;50.20
1329;DHT22;658;48.820;9.354;2022-11-20T01:22:22;21.60;50.30
1329;DHT22;658;48.820;9.354;2022-11-20T01:26:25;21.60;50.30
1329;DHT22;658;48.820;9.354;2022-11-20T01:30:26;21.60;50.20
1329;DHT22;658;48.820;9.354;2022-11-20T01:34:26;21.60;50.20
1329;DHT22;658;48.820;9.354;2022-11-20T01:38:27;21.50;50.20
1329;DHT22;658;48.820;9.354;2022-11-20T01:42:28;21.60;50.20
1329;DHT22;658;48.820;9.354;2022-11-20T01:46:59;21.60;50.20
1329;DHT22;658;48.820;9.354;2022-11-20T01:51:02;21.50;50.10
1329;DHT22;658;48.820;9.354;2022-11-20T01:55:29;21.60;50.20
1329;DHT22;658;48.820;9.354;2022-11-20T01:59:29;21.50;50.10
1329;DHT22;658;48.820;9.354;2022-11-20T02:03:30;21.50;50.10
1329;DHT22;658;48.820;9.354;2022-11-20T02:07:31;21.50;50.10
1329;DHT22;658;48.820;9.354;2022-11-20T02:11:31;21.50;50.10
1329;DHT22;658;48.820;9.354;2022-11-20T02:15:33;21.50;50.10
1329;DHT22;658;48.820;9.354;2022-11-20T02:19:34;21.50;50.10
1329;DHT22;658;48.820;9.354;2022-11-20T02:27:58;21.50;50.10
1329;DHT22;658;48.820;9.354;2022-11-20T02:32:00;21.50;50.10
1329;DHT22;658;48.820;9.354;2022-11-20T02:36:02;21.50;50.00
1329;DHT22;658;48.820;9.354;2022-11-20T02:40:03;21.50;50.00
1329;DHT22;658;48.820;9.354;2022-11-20T02:44:05;21.50;50.00
1329;DHT22;658;48.820;9.354;2022-11-20T02:48:06;21.50;50.00
1329;DHT22;658;48.820;9.354;2022-11-20T02:52:07;21.50;50.00
1329;DHT22;658;48.820;9.354;2022-11-20T02:56:08;21.50;50.00
1329;DHT22;658;48.820;9.354;2022-11-20T03:00:09;21.50;50.00
1329;DHT22;658;48.820;9.354;2022-11-20T03:04:10;21.50;50.00
1329;DHT22;658;48.820;9.354;2022-11-20T03:08:10;21.50;50.00
1329;DHT22;658;48.820;9.354;2022-11-20T03:12:11;21.50;50.00
1329;DHT22;658;48.820;9.354;2022-11-20T03:16:17;21.50;50.00
1329;DHT22;658;48.820;9.354;2022-11-20T03:20:18;21.50;50.00
1329;DHT22;658;48.820;9.354;2022-11-20T03:24:19;21.40;49.90
1329;DHT22;658;48.820;9.354;2022-11-20T03:28:19;21.40;49.90
1329;DHT22;658;48.820;9.354;2022-11-20T03:32:20;21.40;50.00
1329;DHT22;658;48.820;9.354;2022-11-20T03:36:21;21.40;50.00
1329;DHT22;658;48.820;9.354;2022-11-20T03:40:22;21.40;50.00
1329;DHT22;658;48.820;9.354;2022-11-20T03:44:22;21.40;50.00
1329;DHT22;658;48.820;9.354;2022-11-20T03:48:23;21.40;50.00
1329;DHT22;658;48.820;9.354;2022-11-20T03:52:24;21.40;50.00
1329;DHT22;658;48.820;9.354;2022-11-20T03:56:27;21.40;49.90
1329;DHT22;658;48.820;9.354;2022-11-20T04:00:27;21.40;50.50
1329;DHT22;658;48.820;9.354;2022-11-20T04:04:28;21.40;49.90
1329;DHT22;658;48.820;9.354;2022-11-20T04:08:30;21.40;49.90
1329;DHT22;658;48.820;9.354;2022-11-20T04:12:33;21.40;49.90
1329;DHT22;658;48.820;9.354;2022-11-20T04:16:35;21.30;49.80
1329;DHT22;658;48.820;9.354;2022-11-20T04:20:36;21.40;49.90
1329;DHT22;658;48.820;9.354;2022-11-20T04:24:37;21.40;49.90
1329;DHT22;658;48.820;9.354;2022-11-20T04:28:39;21.40;49.90
1329;DHT22;658;48.820;9.354;2022-11-20T04:32:39;21.40;49.80
1329;DHT22;658;48.820;9.354;2022-11-20T04:36:40;21.30;49.70
1329;DHT22;658;48.820;9.354;2022-11-20T04:40:41;21.30;49.80
1329;DHT22;658;48.820;9.354;2022-11-20T04:44:41;21.30;49.80
1329;DHT22;658;48.820;9.354;2022-11-20T04:48:42;21.30;49.80
1329;DHT22;658;48.820;9.354;2022-11-20T04:52:42;21.30;49.80
1329;DHT22;658;48.820;9.354;2022-11-20T04:56:43;21.30;49.80
1329;DHT22;658;48.820;9.354;2022-11-20T05:00:43;21.30;49.80
1329;DHT22;658;48.820;9.354;2022-11-20T05:04:44;21.30;49.80
1329;DHT22;658;48.820;9.354;2022-11-20T05:08:45;21.30;49.80
1329;DHT22;658;48.820;9.354;2022-11-20T05:12:45;21.30;49.90
1329;DHT22;658;48.820;9.354;2022-11-20T05:16:46;21.30;49.80
1329;DHT22;658;48.820;9.354;2022-11-20T05:20:47;21.30;49.70
1329;DHT22;658;48.820;9.354;2022-11-20T05:24:47;21.30;49.70
1329;DHT22;658;48.820;9.354;2022-11-20T05:28:48;21.30;49.70
1329;DHT22;658;48.820;9.354;2022-11-20T05:32:49;21.30;49.70
1329;DHT22;658;48.820;9.354;2022-11-20T05:36:49;21.30;49.80
1329;DHT22;658;48.820;9.354;2022-11-20T05:40:50;21.30;49.70
1329;DHT22;658;48.820;9.354;2022-11-20T05:44:50;21.20;49.70
1329;DHT22;658;48.820;9.354;2022-11-20T05:48:51;21.30;49.80
1329;DHT22;658;48.820;9.354;2022-11-20T05:52:52;21.30;49.70
1329;DHT22;658;48.820;9.354;2022-11-20T05:56:52;21.30;49.70
1329;DHT22;658;48.820;9.354;2022-11-20T06:00:53;21.20;49.60
1329;DHT22;658;48.820;9.354;2022-11-20T06:04:53;21.20;50.10
1329;DHT22;658;48.820;9.354;2022-11-20T06:08:54;21.30;49.70
1329;DHT22;658;48.820;9.354;2022-11-20T06:12:57;21.20;49.60
1329;DHT22;658;48.820;9.354;2022-11-20T06:16:58;21.20;49.60
1329;DHT22;658;48.820;9.354;2022-11-20T06:21:07;21.20;49.60
1329;DHT22;658;48.820;9.354;2022-11-20T06:25:08;21.20;49.60
1329;DHT22;658;48.820;9.354;2022-11-20T06:29:09;21.20;49.60
1329;DHT22;658;48.820;9.354;2022-11-20T06:33:09;21.20;49.60
1329;DHT22;658;48.820;9.354;2022-11-20T06:37:10;21.20;49.60
1329;DHT22;658;48.820;9.354;2022-11-20T06:41:13;21.20;49.50
1329;DHT22;658;48.820;9.354;2022-11-20T06:45:14;21.20;49.60
1329;DHT22;658;48.820;9.354;2022-11-20T06:49:14;21.20;49.60
1329;DHT22;658;48.820;9.354;2022-11-20T06:53:15;21.20;49.60
1329;DHT22;658;48.820;9.354;2022-11-20T06:57:16;21.20;49.60
1329;DHT22;658;48.820;9.354;2022-11-20T07:01:16;21.20;49.60
1329;DHT22;658;48.820;9.354;2022-11-20T07:05:18;21.20;49.50
1329;DHT22;658;48.820;9.354;2022-11-20T07:09:18;21.20;49.50
1329;DHT22;658;48.820;9.354;2022-11-20T07:13:19;21.20;49.50
1329;DHT22;658;48.820;9.354;2022-11-20T07:17:20;21.20;49.50
1329;DHT22;658;48.820;9.354;2022-11-20T07:21:20;21.10;49.50
1329;DHT22;658;48.820;9.354;2022-11-20T07:25:22;21.20;49.50
1329;DHT22;658;48.820;9.354;2022-11-20T07:29:23;21.20;49.50
1329;DHT22;658;48.820;9.354;2022-11-20T07:33:23;21.10;49.40
1329;DHT22;658;48.820;9.354;2022-11-20T07:37:24;21.10;49.50
1329;DHT22;658;48.820;9.354;2022-11-20T07:41:24;21.20;49.50
1329;DHT22;658;48.820;9.354;2022-11-20T07:45:25;21.10;49.50
1329;DHT22;658;48.820;9.354;2022-11-20T07:49:26;21.10;49.40
1329;DHT22;658;48.820;9.354;2022-11-20T07:53:26;21.10;49.40
1329;DHT22;658;48.820;9.354;2022-11-20T07:57:27;21.10;49.50
1329;DHT22;658;48.820;9.354;2022-11-20T08:01:27;21.10;49.40
1329;DHT22;658;48.820;9.354;2022-11-20T08:05:28;21.10;49.40
1329;DHT22;658;48.820;9.354;2022-11-20T08:09:28;21.10;49.40
1329;DHT22;658;48.820;9.354;2022-11-20T08:13:29;21.10;49.50
1329;DHT22;658;48.820;9.354;2022-11-20T08:17:48;21.10;49.50
1329;DHT22;658;48.820;9.354;2022-11-20T08:21:49;21.10;49.60
1329;DHT22;658;48.820;9.354;2022-11-20T08:25:50;21.10;49.50
1329;DHT22;658;48.820;9.354;2022-11-20T08:29:51;21.10;49.60
1329;DHT22;658;48.820;9.354;2022-11-20T08:33:52;21.10;49.60
1329;DHT22;658;48.820;9.354;2022-11-20T08:37:53;21.10;49.60
1329;DHT22;658;48.820;9.354;2022-11-20T08:41:53;21.10;49.60
1329;DHT22;658;48.820;9.354;2022-11-20T08:45:56;21.10;49.60
1329;DHT22;658;48.820;9.354;2022-11-20T08:49:57;21.10;49.60
1329;DHT22;658;48.820;9.354;2022-11-20T08:53:58;21.10;49.60
1329;DHT22;658;48.820;9.354;2022-11-20T08:58:02;21.10;50.10
1329;DHT22;658;48.820;9.354;2022-11-20T09:02:03;21.10;49.60
1329;DHT22;658;48.820;9.354;2022-11-20T09:06:06;21.10;49.60
1329;DHT22;658;48.820;9.354;2022-11-20T09:10:07;21.10;49.60
1329;DHT22;658;48.820;9.354;2022-11-20T09:14:08;21.10;49.60
1329;DHT22;658;48.820;9.354;2022-11-20T09:18:09;21.10;49.50
1329;DHT22;658;48.820;9.354;2022-11-20T09:22:09;21.10;49.60
1329;DHT22;658;48.820;9.354;2022-11-20T09:26:12;21.10;49.60
1329;DHT22;658;48.820;9.354;2022-11-20T09:30:14;21.10;49.40
1329;DHT22;658;48.820;9.354;2022-11-20T09:34:15;21.20;49.20
1329;DHT22;658;48.820;9.354;2022-11-20T09:38:16;21.30;49.20
1329;DHT22;658;48.820;9.354;2022-11-20T09:42:54;21.30;49.20
1329;DHT22;658;48.820;9.354;2022-11-20T09:51:35;21.20;49.10
1329;DHT22;658;48.820;9.354;2022-11-20T09:55:38;21.30;49.10
1329;DHT22;658;48.820;9.354;2022-11-20T09:59:43;21.30;49.10
1329;DHT22;658;48.820;9.354;2022-11-20T10:12:31;21.30;49.60
1329;DHT22;658;48.820;9.354;2022-11-20T10:25:45;21.30;49.20
1329;DHT22;658;48.820;9.354;2022-11-20T10:30:36;21.20;49.20
1329;DHT22;658;48.820;9.354;2022-11-20T10:34:25;21.20;49.30
1329;DHT22;658;48.820;9.354;2022-11-20T10:38:40;21.20;49.60
1329;DHT22;658;48.820;9.354;2022-11-20T10:42:51;21.30;50.10
1329;DHT22;658;48.820;9.354;2022-11-20T10:46:55;21.30;50.10
1329;DHT22;658;48.820;9.354;2022-11-20T10:55:46;21.40;49.80
1329;DHT22;658;48.820;9.354;2022-11-20T11:04:23;21.70;49.60
1329;DHT22;658;48.820;9.354;2022-11-20T11:08:32;21.80;49.30
1329;DHT22;658;48.820;9.354;2022-11-20T11:12:33;21.90;49.40
1329;DHT22;658;48.820;9.354;2022-11-20T11:16:34;22.00;49.20
1329;DHT22;658;48.820;9.354;2022-11-20T11:20:34;22.10;49.00
1329;DHT22;658;48.820;9.354;2022-11-20T11:24:35;22.20;48.80
1329;DHT22;658;48.820;9.354;2022-11-20T11:28:35;22.20;48.80
1329;DHT22;658;48.820;9.354;2022-11-20T11:32:36;22.30;48.60
1329;DHT22;658;48.820;9.354;2022-11-20T11:36:37;22.30;48.50
1329;DHT22;658;48.820;9.354;2022-11-20T11:40:39;22.40;48.10
1329;DHT22;658;48.820;9.354;2022-11-20T11:44:45;22.90;47.30
1329;DHT22;658;48.820;9.354;2022-11-20T11:53:16;26.00;41.50
1329;DHT22;658;48.820;9.354;2022-11-20T12:01:38;27.70;38.30
1329;DHT22;658;48.820;9.354;2022-11-20T12:05:46;28.50;37.10
1329;DHT22;658;48.820;9.354;2022-11-20T12:09:52;28.90;36.00
1329;DHT22;658;48.820;9.354;2022-11-20T12:13:57;28.60;36.40
1329;DHT22;658;48.820;9.354;2022-11-20T12:17:58;27.50;38.10
1329;DHT22;658;48.820;9.354;2022-11-20T12:22:11;28.20;37.30
1329;DHT22;658;48.820;9.354;2022-11-20T12:30:57;28.30;36.80
1329;DHT22;658;48.820;9.354;2022-11-20T12:43:29;29.90;33.90
1329;DHT22;658;48.820;9.354;2022-11-20T12:57:03;27.10;38.80
1329;DHT22;658;48.820;9.354;2022-11-20T13:01:25;26.70;39.80
1329;DHT22;658;48.820;9.354;2022-11-20T13:10:04;26.10;41.00
1329;DHT22;658;48.820;9.354;2022-11-20T13:14:20;25.90;41.40
1329;DHT22;658;48.820;9.354;2022-11-20T13:18:24;25.80;41.50
1329;DHT22;658;48.820;9.354;2022-11-20T13:22:51;25.80;41.60
1329;DHT22;658;48.820;9.354;2022-11-20T13:31:42;25.50;42.10
1329;DHT22;658;48.820;9.354;2022-11-20T13:35:59;25.30;42.50
1329;DHT22;658;48.820;9.354;2022-11-20T13:44:22;25.00;43.10
1329;DHT22;658;48.820;9.354;2022-11-20T13:48:26;25.20;42.90
1329;DHT22;658;48.820;9.354;2022-11-20T14:01:24;25.50;42.10
1329;DHT22;658;48.820;9.354;2022-11-20T14:05:26;25.20;42.90
1329;DHT22;658;48.820;9.354;2022-11-20T14:09:30;24.90;43.50
1329;DHT22;658;48.820;9.354;2022-11-20T14:13:32;24.80;43.80
1329;DHT22;658;48.820;9.354;2022-11-20T14:17:34;24.60;43.90
1329;DHT22;658;48.820;9.354;2022-11-20T14:21:35;24.50;44.10
1329;DHT22;658;48.820;9.354;2022-11-20T14:25:36;24.50;44.20
1329;DHT22;658;48.820;9.354;2022-11-20T14:29:38;24.40;44.20
1329;DHT22;658;48.820;9.354;2022-11-20T14:33:39;24.30;44.30
1329;DHT22;658;48.820;9.354;2022-11-20T14:37:40;24.30;44.40
1329;DHT22;658;48.820;9.354;2022-11-20T14:41:50;24.20;44.50
1329;DHT22;658;48.820;9.354;2022-11-20T14:46:00;24.20;44.50
1329;DHT22;658;48.820;9.354;2022-11-20T14:50:01;24.10;44.50
1329;DHT22;658;48.820;9.354;2022-11-20T14:54:16;24.10;44.70
1329;DHT22;658;48.820;9.354;2022-11-20T14:58:22;23.90;44.80
1329;DHT22;658;48.820;9.354;2022-11-20T15:02:24;23.90;45.10
1329;DHT22;658;48.820;9.354;2022-11-20T15:06:28;23.80;45.30
1329;DHT22;658;48.820;9.354;2022-11-20T15:10:29;23.80;45.40
1329;DHT22;658;48.820;9.354;2022-11-20T15:14:30;23.80;45.40
1329;DHT22;658;48.820;9.354;2022-11-20T15:18:40;23.80;45.40
1329;DHT22;658;48.820;9.354;2022-11-20T15:22:44;23.70;45.50
1329;DHT22;658;48.820;9.354;2022-11-20T15:26:45;23.60;45.70
1329;DHT22;658;48.820;9.354;2022-11-20T15:30:47;23.50;45.90
1329;DHT22;658;48.820;9.354;2022-11-20T15:34:48;23.50;46.00
1329;DHT22;658;48.820;9.354;2022-11-20T15:38:49;23.50;45.90
1329;DHT22;658;48.820;9.354;2022-11-20T15:42:49;23.50;46.00
1329;DHT22;658;48.820;9.354;2022-11-20T15:47:07;23.50;46.20
1329;DHT22;658;48.820;9.354;2022-11-20T15:55:10;23.50;46.40
1329;DHT22;658;48.820;9.354;2022-11-20T15:59:11;23.50;46.00
1329;DHT22;658;48.820;9.354;2022-11-20T16:03:13;23.50;46.00
1329;DHT22;658;48.820;9.354;2022-11-20T16:07:14;23.40;46.00
1329;DHT22;658;48.820;9.354;2022-11-20T16:11:16;23.40;46.00
1329;DHT22;658;48.820;9.354;2022-11-20T16:15:17;23.40;46.10
1329;DHT22;658;48.820;9.354;2022-11-20T16:19:36;23.30;46.10
1329;DHT22;658;48.820;9.354;2022-11-20T16:23:37;23.30;46.10
1329;DHT22;658;48.820;9.354;2022-11-20T16:27:37;23.30;46.00
1329;DHT22;658;48.820;9.354;2022-11-20T16:31:38;23.30;45.80
1329;DHT22;658;48.820;9.354;2022-11-20T16:35:39;23.30;45.80
1329;DHT22;658;48.820;9.354;2022-11-20T16:39:40;23.30;45.80
1329;DHT22;658;48.820;9.354;2022-11-20T16:43:45;23.30;45.70
1329;DHT22;658;48.820;9.354;2022-11-20T16:47:46;23.30;45.60
1329;DHT22;658;48.820;9.354;2022-11-20T16:51:47;23.30;45.60
1329;DHT22;658;48.820;9.354;2022-11-20T16:55:48;23.20;45.60
1329;DHT22;658;48.820;9.354;2022-11-20T16:59:49;23.20;45.50
1329;DHT22;658;48.820;9.354;2022-11-20T17:04:06;23.20;45.60
1329;DHT22;658;48.820;9.354;2022-11-20T17:08:06;23.20;45.60
1329;DHT22;658;48.820;9.354;2022-11-20T17:12:07;23.10;45.60
1329;DHT22;658;48.820;9.354;2022-11-20T17:16:13;23.10;45.60
1329;DHT22;658;48.820;9.354;2022-11-20T17:20:15;23.10;45.70
1329;DHT22;658;48.820;9.354;2022-11-20T17:24:15;23.00;45.80
1329;DHT22;658;48.820;9.354;2022-11-20T17:28:16;23.00;46.00
1329;DHT22;658;48.820;9.354;2022-11-20T17:32:16;23.00;46.70
1329;DHT22;658;48.820;9.354;2022-11-20T17:36:18;23.00;46.40
1329;DHT22;658;48.820;9.354;2022-11-20T17:40:19;23.00;46.20
1329;DHT22;658;48.820;9.354;2022-11-20T17:44:19;23.00;46.80
1329;DHT22;658;48.820;9.354;2022-11-20T17:48:20;23.00;46.40
1329;DHT22;658;48.820;9.354;2022-11-20T17:52:21;23.00;46.20
1329;DHT22;658;48.820;9.354;2022-11-20T17:56:22;23.00;46.10
1329;DHT22;658;48.820;9.354;2022-11-20T18:00:41;23.00;45.90
1329;DHT22;658;48.820;9.354;2022-11-20T18:04:42;23.00;45.90
1329;DHT22;658;48.820;9.354;2022-11-20T18:08:43;23.00;46.00
1329;DHT22;658;48.820;9.354;2022-11-20T18:12:44;23.00;46.00
1329;DHT22;658;48.820;9.354;2022-11-20T18:16:46;23.00;46.00
1329;DHT22;658;48.820;9.354;2022-11-20T18:20:52;23.00;46.00
1329;DHT22;658;48.820;9.354;2022-11-20T18:24:53;23.00;45.60
1329;DHT22;658;48.820;9.354;2022-11-20T18:28:54;23.00;45.30
1329;DHT22;658;48.820;9.354;2022-11-20T18:32:54;23.00;45.10
1329;DHT22;658;48.820;9.354;2022-11-20T18:36:55;23.00;44.90
1329;DHT22;658;48.820;9.354;2022-11-20T18:40:56;23.00;44.60
1329;DHT22;658;48.820;9.354;2022-11-20T18:44:56;23.00;44.40
1329;DHT22;658;48.820;9.354;2022-11-20T18:48:59;23.00;44.30
1329;DHT22;658;48.820;9.354;2022-11-20T18:53:00;23.00;44.60
1329;DHT22;658;48.820;9.354;2022-11-20T18:57:00;23.00;44.80
1329;DHT22;658;48.820;9.354;2022-11-20T19:01:06;23.00;44.90
1329;DHT22;658;48.820;9.354;2022-11-20T19:05:07;22.90;44.90
1329;DHT22;658;48.820;9.354;2022-11-20T19:09:09;23.00;44.90
1329;DHT22;658;48.820;9.354;2022-11-20T19:13:10;23.00;45.00
1329;DHT22;658;48.820;9.354;2022-11-20T19:17:11;23.00;45.10
1329;DHT22;658;48.820;9.354;2022-11-20T19:21:15;23.00;45.20
1329;DHT22;658;48.820;9.354;2022-11-20T19:25:16;22.90;45.20
1329;DHT22;658;48.820;9.354;2022-11-20T19:29:17;22.90;45.40
1329;DHT22;658;48.820;9.354;2022-11-20T19:33:17;22.90;45.30
1329;DHT22;658;48.820;9.354;2022-11-20T19:37:18;22.90;45.50
1329;DHT22;658;48.820;9.354;2022-11-20T19:41:22;22.90;45.60
1329;DHT22;658;48.820;9.354;2022-11-20T19:45:28;22.80;45.60
1329;DHT22;658;48.820;9.354;2022-11-20T19:49:28;22.90;45.60
1329;DHT22;658;48.820;9.354;2022-11-20T19:53:29;22.90;45.50
1329;DHT22;658;48.820;9.354;2022-11-20T19:57:30;22.90;46.20
1329;DHT22;658;48.820;9.354;2022-11-20T20:01:31;22.90;45.70
1329;DHT22;658;48.820;9.354;2022-11-20T20:05:33;22.80;45.80
1329;DHT22;658;48.820;9.354;2022-11-20T20:09:33;22.90;45.80
1329;DHT22;658;48.820;9.354;2022-11-20T20:13:34;22.90;45.90
1329;DHT22;658;48.820;9.354;2022-11-20T20:17:35;22.90;45.90
1329;DHT22;658;48.820;9.354;2022-11-20T20:21:35;22.90;46.00
1329;DHT22;658;48.820;9.354;2022-11-20T20:25:36;22.90;46.00
1329;DHT22;658;48.820;9.354;2022-11-20T20:29:40;22.90;46.00
1329;DHT22;658;48.820;9.354;2022-11-20T20:33:40;22.90;46.00
1329;DHT22;658;48.820;9.354;2022-11-20T20:37:41;23.00;46.00
1329;DHT22;658;48.820;9.354;2022-11-20T20:41:42;23.00;45.90
1329;DHT22;658;48.820;9.354;2022-11-20T20:45:47;23.00;46.00
1329;DHT22;658;48.820;9.354;2022-11-20T20:49:47;23.00;46.20
1329;DHT22;658;48.820;9.354;2022-11-20T20:53:49;23.00;46.20
1329;DHT22;658;48.820;9.354;2022-11-20T20:57:49;23.00;46.40
1329;DHT22;658;48.820;9.354;2022-11-20T21:01:50;23.00;46.40
1329;DHT22;658;48.820;9.354;2022-11-20T21:05:55;23.00;46.40
1329;DHT22;658;48.820;9.354;2022-11-20T21:09:56;23.00;46.60
1329;DHT22;658;48.820;9.354;2022-11-20T21:13:57;23.00;46.50
1329;DHT22;658;48.820;9.354;2022-11-20T21:17:57;23.00;46.60
1329;DHT22;658;48.820;9.354;2022-11-20T21:21:58;23.00;46.50
1329;DHT22;658;48.820;9.354;2022-11-20T21:26:00;23.00;46.60
1329;DHT22;658;48.820;9.354;2022-11-20T21:30:02;23.00;46.70
1329;DHT22;658;48.820;9.354;2022-11-20T21:34:02;23.00;46.70
1329;DHT22;658;48.820;9.354;2022-11-20T21:38:03;23.00;46.70
1329;DHT22;658;48.820;9.354;2022-11-20T21:42:04;23.00;47.10
1329;DHT22;658;48.820;9.354;2022-11-20T21:46:07;23.00;46.90
1329;DHT22;658;48.820;9.354;2022-11-20T21:50:09;23.00;46.90
1329;DHT22;658;48.820;9.354;2022-11-20T21:54:09;22.90;46.90
1329;DHT22;658;48.820;9.354;2022-11-20T21:58:11;22.90;46.90
1329;DHT22;658;48.820;9.354;2022-11-20T22:02:11;23.00;46.90
1329;DHT22;658;48.820;9.354;2022-11-20T22:06:12;23.00;47.00
1329;DHT22;658;48.820;9.354;2022-11-20T22:10:12;22.90;47.00
1329;DHT22;658;48.820;9.354;2022-11-20T22:14:13;22.80;47.30
1329;DHT22;658;48.820;9.354;2022-11-20T22:18:19;22.70;47.40
1329;DHT22;658;48.820;9.354;2022-11-20T22:22:21;22.70;47.50
1329;DHT22;658;48.820;9.354;2022-11-20T22:26:27;22.60;47.50
1329;DHT22;658;48.820;9.354;2022-11-20T22:30:28;22.60;47.70
1329;DHT22;658;48.820;9.354;2022-11-20T22:34:28;22.50;47.70
1329;DHT22;658;48.820;9.354;2022-11-20T22:38:29;22.50;47.80
1329;DHT22;658;48.820;9.354;2022-11-20T22:42:30;22.50;47.80
1329;DHT22;658;48.820;9.354;2022-11-20T22:46:32;22.40;47.70
1329;DHT22;658;48.820;9.354;2022-11-20T22:50:33;22.40;47.80
1329;DHT22;658;48.820;9.354;2022-11-20T22:54:34;22.40;47.80
1329;DHT22;658;48.820;9.354;2022-11-20T22:58:38;22.40;47.90
1329;DHT22;658;48.820;9.354;2022-11-20T23:02:48;22.30;47.90
1329;DHT22;658;48.820;9.354;2022-11-20T23:06:48;22.30;48.00
1329;DHT22;658;48.820;9.354;2022-11-20T23:10:49;22.30;48.00
1329;DHT22;658;48.820;9.354;2022-11-20T23:14:49;22.30;48.20
1329;DHT22;658;48.820;9.354;2022-11-20T23:18:55;22.20;48.10
1329;DHT22;658;48.820;9.354;2022-11-20T23:22:56;22.20;48.10
1329;DHT22;658;48.820;9.354;2022-11-20T23:26:56;22.10;48.00
1329;DHT22;658;48.820;9.354;2022-11-20T23:30:57;22.10;48.00
1329;DHT22;658;48.820;9.354;2022-11-20T23:34:58;22.20;48.10
1329;DHT22;658;48.820;9.354;2022-11-20T23:38:58;22.20;48.10
1329;DHT22;658;48.820;9.354;2022-11-20T23:42:59;22.10;48.00
1329;DHT22;658;48.820;9.354;2022-11-20T23:47:15;22.10;48.00
1329;DHT22;658;48.820;9.354;2022-11-20T23:51:15;22.10;48.00
1329;DHT22;658;48.820;9.354;2022-11-20T23:55:16;22.00;48.00
1329;DHT22;658;48.820;9.354;2022-11-20T23:59:17;22.00;48.00
